sensor_id;sensor_type;location;lat;lon;timestamp;temperature;humidity
31131;DHT22;20292;50.944;4.034;2022-09-02T00:01:08;19.60;99.90
31131;DHT22;20292;50.944;4.034;2022-09-02T00:03:35;19.50;99.90
31131;DHT22;20292;50.944;4.034;2022-09-02T00:06:02;19.40;99.90
31131;DHT22;20292;50.944;4.034;2022-09-02T00:08:29;19.40;99.90
31131;DHT22;20292;50.944;4.034;2022-09-02T00:10:57;19.40;99.90
31131;DHT22;20292;50.944;4.034;2022-09-02T00:13:23;19.30;99.90
31131;DHT22;20292;50.944;4.034;2022-09-02T00:15:49;19.30;99.90
31131;DHT22;20292;50.944;4.034;2022-09-02T00:18:16;19.30;99.90
31131;DHT22;20292;50.944;4.034;2022-09-02T00:20:44;19.30;99.90
31131;DHT22;20292;50.944;4.034;2022-09-02T00:23:10;19.20;99.90
31131;DHT22;20292;50.944;4.034;2022-09-02T00:25:38;19.20;99.90
31131;DHT22;20292;50.944;4.034;2022-09-02T00:28:04;19.20;99.90
31131;DHT22;20292;50.944;4.034;2022-09-02T00:30:30;19.40;99.90
31131;DHT22;20292;50.944;4.034;2022-09-02T00:32:57;19.30;99.90
31131;DHT22;20292;50.944;4.034;2022-09-02T00:35:22;19.40;99.90
31131;DHT22;20292;50.944;4.034;2022-09-02T00:37:48;19.30;99.90
31131;DHT22;20292;50.944;4.034;2022-09-02T00:40:14;19.20;99.90
31131;DHT22;20292;50.944;4.034;2022-09-02T00:42:41;19.20;99.90
31131;DHT22;20292;50.944;4.034;2022-09-02T00:45:07;19.20;99.90
31131;DHT22;20292;50.944;4.034;2022-09-02T00:47:34;19.20;99.90
31131;DHT22;20292;50.944;4.034;2022-09-02T00:50:04;19.30;99.90
31131;DHT22;20292;50.944;4.034;2022-09-02T00:52:43;19.20;99.90
31131;DHT22;20292;50.944;4.034;2022-09-02T00:55:29;19.10;99.90
31131;DHT22;20292;50.944;4.034;2022-09-02T00:58:03;19.20;99.90
31131;DHT22;20292;50.944;4.034;2022-09-02T01:00:34;19.00;99.90
31131;DHT22;20292;50.944;4.034;2022-09-02T01:03:03;19.10;99.90
31131;DHT22;20292;50.944;4.034;2022-09-02T01:05:31;19.10;99.90
31131;DHT22;20292;50.944;4.034;2022-09-02T01:07:57;19.20;99.90
31131;DHT22;20292;50.944;4.034;2022-09-02T01:10:29;19.20;99.90
31131;DHT22;20292;50.944;4.034;2022-09-02T01:13:00;19.20;99.90
31131;DHT22;20292;50.944;4.034;2022-09-02T01:15:26;19.20;99.90
31131;DHT22;20292;50.944;4.034;2022-09-02T01:17:53;19.20;99.90
31131;DHT22;20292;50.944;4.034;2022-09-02T01:20:24;19.20;99.90
31131;DHT22;20292;50.944;4.034;2022-09-02T01:22:50;19.20;99.90
31131;DHT22;20292;50.944;4.034;2022-09-02T01:25:22;19.20;99.90
31131;DHT22;20292;50.944;4.034;2022-09-02T01:27:49;19.20;99.90
31131;DHT22;20292;50.944;4.034;2022-09-02T01:30:23;19.20;99.90
31131;DHT22;20292;50.944;4.034;2022-09-02T01:32:49;19.20;99.90
31131;DHT22;20292;50.944;4.034;2022-09-02T01:35:15;19.10;99.90
31131;DHT22;20292;50.944;4.034;2022-09-02T01:37:43;19.10;99.90
31131;DHT22;20292;50.944;4.034;2022-09-02T01:40:11;19.10;99.90
31131;DHT22;20292;50.944;4.034;2022-09-02T01:42:37;19.10;99.90
31131;DHT22;20292;50.944;4.034;2022-09-02T01:45:05;18.90;99.90
31131;DHT22;20292;50.944;4.034;2022-09-02T01:47:31;18.80;99.90
31131;DHT22;20292;50.944;4.034;2022-09-02T01:49:57;18.80;99.90
31131;DHT22;20292;50.944;4.034;2022-09-02T01:52:27;18.70;99.90
31131;DHT22;20292;50.944;4.034;2022-09-02T01:54:53;18.70;99.90
31131;DHT22;20292;50.944;4.034;2022-09-02T01:57:19;18.70;99.90
31131;DHT22;20292;50.944;4.034;2022-09-02T01:59:45;18.70;99.90
31131;DHT22;20292;50.944;4.034;2022-09-02T02:02:13;18.70;99.90
31131;DHT22;20292;50.944;4.034;2022-09-02T02:04:40;18.80;99.90
31131;DHT22;20292;50.944;4.034;2022-09-02T02:07:06;18.70;99.90
31131;DHT22;20292;50.944;4.034;2022-09-02T02:09:32;18.70;99.90
31131;DHT22;20292;50.944;4.034;2022-09-02T02:11:57;18.70;99.90
31131;DHT22;20292;50.944;4.034;2022-09-02T02:14:23;18.80;99.90
31131;DHT22;20292;50.944;4.034;2022-09-02T02:16:49;18.70;99.90
31131;DHT22;20292;50.944;4.034;2022-09-02T02:19:15;18.70;99.90
31131;DHT22;20292;50.944;4.034;2022-09-02T02:21:41;18.40;99.90
31131;DHT22;20292;50.944;4.034;2022-09-02T02:24:07;18.40;99.90
31131;DHT22;20292;50.944;4.034;2022-09-02T02:26:34;18.40;99.90
31131;DHT22;20292;50.944;4.034;2022-09-02T02:29:00;18.50;99.90
31131;DHT22;20292;50.944;4.034;2022-09-02T02:31:26;18.60;99.90
31131;DHT22;20292;50.944;4.034;2022-09-02T02:33:52;18.60;99.90
31131;DHT22;20292;50.944;4.034;2022-09-02T02:36:18;18.60;99.90
31131;DHT22;20292;50.944;4.034;2022-09-02T02:38:44;18.50;99.90
31131;DHT22;20292;50.944;4.034;2022-09-02T02:41:12;18.60;99.90
31131;DHT22;20292;50.944;4.034;2022-09-02T02:43:38;18.60;99.90
31131;DHT22;20292;50.944;4.034;2022-09-02T02:46:05;18.60;99.90
31131;DHT22;20292;50.944;4.034;2022-09-02T02:48:32;18.60;99.90
31131;DHT22;20292;50.944;4.034;2022-09-02T02:50:58;18.60;99.90
31131;DHT22;20292;50.944;4.034;2022-09-02T02:53:24;18.60;99.90
31131;DHT22;20292;50.944;4.034;2022-09-02T02:55:50;18.60;99.90
31131;DHT22;20292;50.944;4.034;2022-09-02T02:58:16;18.60;99.90
31131;DHT22;20292;50.944;4.034;2022-09-02T03:00:42;18.40;99.90
31131;DHT22;20292;50.944;4.034;2022-09-02T03:03:10;18.10;99.90
31131;DHT22;20292;50.944;4.034;2022-09-02T03:05:36;18.10;99.90
31131;DHT22;20292;50.944;4.034;2022-09-02T03:08:07;18.20;99.90
31131;DHT22;20292;50.944;4.034;2022-09-02T03:10:34;18.10;99.90
31131;DHT22;20292;50.944;4.034;2022-09-02T03:13:00;18.10;99.90
31131;DHT22;20292;50.944;4.034;2022-09-02T03:15:26;18.10;99.90
31131;DHT22;20292;50.944;4.034;2022-09-02T03:17:53;18.00;99.90
31131;DHT22;20292;50.944;4.034;2022-09-02T03:20:19;18.00;99.90
31131;DHT22;20292;50.944;4.034;2022-09-02T03:22:46;18.00;99.90
31131;DHT22;20292;50.944;4.034;2022-09-02T03:25:15;18.00;99.90
31131;DHT22;20292;50.944;4.034;2022-09-02T03:27:41;18.10;99.90
31131;DHT22;20292;50.944;4.034;2022-09-02T03:30:16;18.10;99.90
31131;DHT22;20292;50.944;4.034;2022-09-02T03:32:42;18.10;99.90
31131;DHT22;20292;50.944;4.034;2022-09-02T03:35:10;18.10;99.90
31131;DHT22;20292;50.944;4.034;2022-09-02T03:37:36;18.00;99.90
31131;DHT22;20292;50.944;4.034;2022-09-02T03:40:07;18.00;99.90
31131;DHT22;20292;50.944;4.034;2022-09-02T03:42:33;18.00;99.90
31131;DHT22;20292;50.944;4.034;2022-09-02T03:44:59;18.00;99.90
31131;DHT22;20292;50.944;4.034;2022-09-02T03:47:25;18.00;99.90
31131;DHT22;20292;50.944;4.034;2022-09-02T03:49:53;18.00;99.90
31131;DHT22;20292;50.944;4.034;2022-09-02T03:52:19;18.00;99.90
31131;DHT22;20292;50.944;4.034;2022-09-02T03:54:44;17.80;99.90
31131;DHT22;20292;50.944;4.034;2022-09-02T03:57:10;17.70;99.90
31131;DHT22;20292;50.944;4.034;2022-09-02T03:59:36;17.50;99.90
31131;DHT22;20292;50.944;4.034;2022-09-02T04:02:01;17.20;99.90
31131;DHT22;20292;50.944;4.034;2022-09-02T04:04:28;17.20;99.90
31131;DHT22;20292;50.944;4.034;2022-09-02T04:06:54;17.20;99.90
31131;DHT22;20292;50.944;4.034;2022-09-02T04:09:19;17.20;99.90
31131;DHT22;20292;50.944;4.034;2022-09-02T04:11:45;17.10;99.90
31131;DHT22;20292;50.944;4.034;2022-09-02T04:14:11;17.00;99.90
31131;DHT22;20292;50.944;4.034;2022-09-02T04:16:37;17.00;99.90
31131;DHT22;20292;50.944;4.034;2022-09-02T04:19:03;16.80;99.90
31131;DHT22;20292;50.944;4.034;2022-09-02T04:21:32;16.60;99.90
31131;DHT22;20292;50.944;4.034;2022-09-02T04:23:58;16.60;99.90
31131;DHT22;20292;50.944;4.034;2022-09-02T04:26:24;16.60;99.90
31131;DHT22;20292;50.944;4.034;2022-09-02T04:28:50;16.40;99.90
31131;DHT22;20292;50.944;4.034;2022-09-02T04:31:19;16.20;99.90
31131;DHT22;20292;50.944;4.034;2022-09-02T04:33:45;16.10;99.90
31131;DHT22;20292;50.944;4.034;2022-09-02T04:36:13;16.10;99.90
31131;DHT22;20292;50.944;4.034;2022-09-02T04:38:40;16.20;99.90
31131;DHT22;20292;50.944;4.034;2022-09-02T04:41:14;16.20;99.90
31131;DHT22;20292;50.944;4.034;2022-09-02T04:43:39;16.40;99.90
31131;DHT22;20292;50.944;4.034;2022-09-02T04:46:08;16.50;99.90
31131;DHT22;20292;50.944;4.034;2022-09-02T04:48:35;16.50;99.90
31131;DHT22;20292;50.944;4.034;2022-09-02T04:51:19;16.70;99.90
31131;DHT22;20292;50.944;4.034;2022-09-02T04:53:46;16.90;99.90
31131;DHT22;20292;50.944;4.034;2022-09-02T04:56:15;17.10;99.90
31131;DHT22;20292;50.944;4.034;2022-09-02T04:58:41;17.00;99.90
31131;DHT22;20292;50.944;4.034;2022-09-02T05:01:21;17.20;99.90
31131;DHT22;20292;50.944;4.034;2022-09-02T05:03:47;17.30;99.90
31131;DHT22;20292;50.944;4.034;2022-09-02T05:06:20;17.40;99.90
31131;DHT22;20292;50.944;4.034;2022-09-02T05:08:46;17.60;99.90
31131;DHT22;20292;50.944;4.034;2022-09-02T05:11:20;17.70;99.90
31131;DHT22;20292;50.944;4.034;2022-09-02T05:13:48;17.70;99.90
31131;DHT22;20292;50.944;4.034;2022-09-02T05:16:17;17.80;99.90
31131;DHT22;20292;50.944;4.034;2022-09-02T05:18:43;17.70;99.90
31131;DHT22;20292;50.944;4.034;2022-09-02T05:21:09;17.70;99.90
31131;DHT22;20292;50.944;4.034;2022-09-02T05:23:35;17.70;99.90
31131;DHT22;20292;50.944;4.034;2022-09-02T05:26:05;17.90;99.90
31131;DHT22;20292;50.944;4.034;2022-09-02T05:28:32;18.00;99.90
31131;DHT22;20292;50.944;4.034;2022-09-02T05:31:02;18.00;99.90
31131;DHT22;20292;50.944;4.034;2022-09-02T05:33:30;17.90;99.90
31131;DHT22;20292;50.944;4.034;2022-09-02T05:35:56;18.00;99.90
31131;DHT22;20292;50.944;4.034;2022-09-02T05:38:22;18.10;99.90
31131;DHT22;20292;50.944;4.034;2022-09-02T05:40:49;18.20;99.90
31131;DHT22;20292;50.944;4.034;2022-09-02T05:43:15;18.50;99.90
31131;DHT22;20292;50.944;4.034;2022-09-02T05:45:41;18.60;99.90
31131;DHT22;20292;50.944;4.034;2022-09-02T05:48:06;18.80;99.90
31131;DHT22;20292;50.944;4.034;2022-09-02T05:50:52;19.20;99.90
31131;DHT22;20292;50.944;4.034;2022-09-02T05:53:18;19.30;99.90
31131;DHT22;20292;50.944;4.034;2022-09-02T05:55:43;19.40;99.90
31131;DHT22;20292;50.944;4.034;2022-09-02T05:58:09;19.90;99.90
31131;DHT22;20292;50.944;4.034;2022-09-02T06:00:36;20.80;99.90
31131;DHT22;20292;50.944;4.034;2022-09-02T06:03:04;21.80;99.90
31131;DHT22;20292;50.944;4.034;2022-09-02T06:05:29;22.40;99.90
31131;DHT22;20292;50.944;4.034;2022-09-02T06:07:55;22.90;99.90
31131;DHT22;20292;50.944;4.034;2022-09-02T06:10:21;23.00;99.90
31131;DHT22;20292;50.944;4.034;2022-09-02T06:12:46;23.20;99.90
31131;DHT22;20292;50.944;4.034;2022-09-02T06:15:12;23.00;99.90
31131;DHT22;20292;50.944;4.034;2022-09-02T06:17:39;23.30;99.90
31131;DHT22;20292;50.944;4.034;2022-09-02T06:20:05;24.30;99.90
31131;DHT22;20292;50.944;4.034;2022-09-02T06:22:30;24.50;99.90
31131;DHT22;20292;50.944;4.034;2022-09-02T06:24:56;24.40;99.90
31131;DHT22;20292;50.944;4.034;2022-09-02T06:27:22;23.40;99.90
31131;DHT22;20292;50.944;4.034;2022-09-02T06:29:48;22.80;99.90
31131;DHT22;20292;50.944;4.034;2022-09-02T06:32:13;21.70;99.90
31131;DHT22;20292;50.944;4.034;2022-09-02T06:34:39;21.60;99.90
31131;DHT22;20292;50.944;4.034;2022-09-02T06:37:05;21.30;99.90
31131;DHT22;20292;50.944;4.034;2022-09-02T06:39:30;21.30;99.90
31131;DHT22;20292;50.944;4.034;2022-09-02T06:41:56;21.40;99.90
31131;DHT22;20292;50.944;4.034;2022-09-02T06:44:22;21.50;99.90
31131;DHT22;20292;50.944;4.034;2022-09-02T06:46:56;21.40;99.90
31131;DHT22;20292;50.944;4.034;2022-09-02T06:49:23;21.50;99.90
31131;DHT22;20292;50.944;4.034;2022-09-02T06:51:51;21.20;99.90
31131;DHT22;20292;50.944;4.034;2022-09-02T06:54:20;21.10;99.90
31131;DHT22;20292;50.944;4.034;2022-09-02T06:56:47;21.00;99.90
31131;DHT22;20292;50.944;4.034;2022-09-02T06:59:13;20.70;99.90
31131;DHT22;20292;50.944;4.034;2022-09-02T07:01:38;20.70;99.90
31131;DHT22;20292;50.944;4.034;2022-09-02T07:04:04;21.00;99.90
31131;DHT22;20292;50.944;4.034;2022-09-02T07:06:51;21.10;99.90
31131;DHT22;20292;50.944;4.034;2022-09-02T07:09:20;21.30;99.90
31131;DHT22;20292;50.944;4.034;2022-09-02T07:11:47;21.50;99.90
31131;DHT22;20292;50.944;4.034;2022-09-02T07:14:18;21.20;99.90
31131;DHT22;20292;50.944;4.034;2022-09-02T07:16:47;21.10;99.90
31131;DHT22;20292;50.944;4.034;2022-09-02T07:19:14;21.30;99.90
31131;DHT22;20292;50.944;4.034;2022-09-02T07:21:40;21.30;99.90
31131;DHT22;20292;50.944;4.034;2022-09-02T07:24:07;21.70;99.90
31131;DHT22;20292;50.944;4.034;2022-09-02T07:26:33;21.90;99.90
31131;DHT22;20292;50.944;4.034;2022-09-02T07:28:58;22.60;99.90
31131;DHT22;20292;50.944;4.034;2022-09-02T07:31:24;24.10;99.90
31131;DHT22;20292;50.944;4.034;2022-09-02T07:33:51;25.20;99.90
31131;DHT22;20292;50.944;4.034;2022-09-02T07:36:17;25.90;99.90
31131;DHT22;20292;50.944;4.034;2022-09-02T07:38:46;26.90;99.90
31131;DHT22;20292;50.944;4.034;2022-09-02T07:41:11;27.30;99.90
31131;DHT22;20292;50.944;4.034;2022-09-02T07:43:38;27.60;99.90
31131;DHT22;20292;50.944;4.034;2022-09-02T07:46:06;27.50;99.90
31131;DHT22;20292;50.944;4.034;2022-09-02T07:48:32;28.60;99.90
31131;DHT22;20292;50.944;4.034;2022-09-02T07:50:59;29.00;99.60
31131;DHT22;20292;50.944;4.034;2022-09-02T07:53:25;28.60;99.50
31131;DHT22;20292;50.944;4.034;2022-09-02T07:55:51;28.10;99.50
31131;DHT22;20292;50.944;4.034;2022-09-02T07:58:19;27.80;99.90
31131;DHT22;20292;50.944;4.034;2022-09-02T08:00:46;27.70;99.90
31131;DHT22;20292;50.944;4.034;2022-09-02T08:03:13;27.50;99.90
31131;DHT22;20292;50.944;4.034;2022-09-02T08:05:39;27.00;99.90
31131;DHT22;20292;50.944;4.034;2022-09-02T08:08:07;26.90;99.90
31131;DHT22;20292;50.944;4.034;2022-09-02T08:10:34;26.80;99.90
31131;DHT22;20292;50.944;4.034;2022-09-02T08:13:01;26.40;99.90
31131;DHT22;20292;50.944;4.034;2022-09-02T08:15:29;27.60;99.90
31131;DHT22;20292;50.944;4.034;2022-09-02T08:17:56;28.50;99.90
31131;DHT22;20292;50.944;4.034;2022-09-02T08:20:22;29.70;97.70
31131;DHT22;20292;50.944;4.034;2022-09-02T08:22:48;30.50;95.70
31131;DHT22;20292;50.944;4.034;2022-09-02T08:25:14;29.80;95.60
31131;DHT22;20292;50.944;4.034;2022-09-02T08:27:42;30.20;94.60
31131;DHT22;20292;50.944;4.034;2022-09-02T08:30:08;31.20;93.70
31131;DHT22;20292;50.944;4.034;2022-09-02T08:32:35;30.70;93.10
31131;DHT22;20292;50.944;4.034;2022-09-02T08:35:01;29.40;95.00
31131;DHT22;20292;50.944;4.034;2022-09-02T08:37:29;29.70;94.80
31131;DHT22;20292;50.944;4.034;2022-09-02T08:39:56;29.70;94.20
31131;DHT22;20292;50.944;4.034;2022-09-02T08:42:26;28.40;96.00
31131;DHT22;20292;50.944;4.034;2022-09-02T08:45:05;28.30;96.80
31131;DHT22;20292;50.944;4.034;2022-09-02T08:47:34;28.40;96.40
31131;DHT22;20292;50.944;4.034;2022-09-02T08:50:19;27.50;98.20
31131;DHT22;20292;50.944;4.034;2022-09-02T08:55:54;26.50;99.90
31131;DHT22;20292;50.944;4.034;2022-09-02T08:58:23;27.10;99.90
31131;DHT22;20292;50.944;4.034;2022-09-02T09:01:14;27.50;99.70
31131;DHT22;20292;50.944;4.034;2022-09-02T09:07:15;28.30;98.70
31131;DHT22;20292;50.944;4.034;2022-09-02T09:13:01;27.80;98.90
31131;DHT22;20292;50.944;4.034;2022-09-02T09:15:51;26.80;99.90
31131;DHT22;20292;50.944;4.034;2022-09-02T09:18:28;26.60;99.90
31131;DHT22;20292;50.944;4.034;2022-09-02T09:20:57;26.90;99.90
31131;DHT22;20292;50.944;4.034;2022-09-02T09:23:31;27.60;99.90
31131;DHT22;20292;50.944;4.034;2022-09-02T09:26:13;28.30;99.20
31131;DHT22;20292;50.944;4.034;2022-09-02T09:28:43;28.70;98.00
31131;DHT22;20292;50.944;4.034;2022-09-02T09:31:18;28.00;98.90
31131;DHT22;20292;50.944;4.034;2022-09-02T09:39:22;27.80;98.40
31131;DHT22;20292;50.944;4.034;2022-09-02T09:41:53;27.10;99.80
31131;DHT22;20292;50.944;4.034;2022-09-02T09:44:46;26.80;99.90
31131;DHT22;20292;50.944;4.034;2022-09-02T09:47:21;26.60;99.90
31131;DHT22;20292;50.944;4.034;2022-09-02T09:52:33;26.90;99.90
31131;DHT22;20292;50.944;4.034;2022-09-02T09:55:24;26.90;99.90
31131;DHT22;20292;50.944;4.034;2022-09-02T09:57:50;27.40;99.90
31131;DHT22;20292;50.944;4.034;2022-09-02T10:00:27;27.60;99.90
31131;DHT22;20292;50.944;4.034;2022-09-02T10:02:59;27.60;99.30
31131;DHT22;20292;50.944;4.034;2022-09-02T10:08:00;27.40;99.40
31131;DHT22;20292;50.944;4.034;2022-09-02T10:10:28;26.40;99.90
31131;DHT22;20292;50.944;4.034;2022-09-02T10:13:01;25.90;99.90
31131;DHT22;20292;50.944;4.034;2022-09-02T10:18:55;26.70;99.90
31131;DHT22;20292;50.944;4.034;2022-09-02T10:27:06;26.20;99.90
31131;DHT22;20292;50.944;4.034;2022-09-02T10:35:41;26.70;99.90
31131;DHT22;20292;50.944;4.034;2022-09-02T10:38:42;26.80;99.90
31131;DHT22;20292;50.944;4.034;2022-09-02T10:46:39;26.40;99.90
31131;DHT22;20292;50.944;4.034;2022-09-02T10:54:45;26.40;99.90
31131;DHT22;20292;50.944;4.034;2022-09-02T10:57:28;26.20;99.90
31131;DHT22;20292;50.944;4.034;2022-09-02T11:00:18;26.30;99.90
31131;DHT22;20292;50.944;4.034;2022-09-02T11:11:08;26.30;99.90
31131;DHT22;20292;50.944;4.034;2022-09-02T11:16:32;26.40;99.90
31131;DHT22;20292;50.944;4.034;2022-09-02T11:19:48;26.20;99.90
31131;DHT22;20292;50.944;4.034;2022-09-02T11:25:02;26.20;99.90
31131;DHT22;20292;50.944;4.034;2022-09-02T11:28:15;26.10;99.90
31131;DHT22;20292;50.944;4.034;2022-09-02T11:30:54;26.30;99.90
31131;DHT22;20292;50.944;4.034;2022-09-02T11:33:28;26.50;99.90
31131;DHT22;20292;50.944;4.034;2022-09-02T11:35:57;26.60;99.90
31131;DHT22;20292;50.944;4.034;2022-09-02T11:38:39;26.70;99.90
31131;DHT22;20292;50.944;4.034;2022-09-02T11:43:45;26.20;99.90
31131;DHT22;20292;50.944;4.034;2022-09-02T11:46:40;26.40;99.90
31131;DHT22;20292;50.944;4.034;2022-09-02T11:55:14;26.60;99.90
31131;DHT22;20292;50.944;4.034;2022-09-02T11:57:41;27.10;99.80
31131;DHT22;20292;50.944;4.034;2022-09-02T12:00:32;27.70;98.80
31131;DHT22;20292;50.944;4.034;2022-09-02T12:03:11;28.20;96.50
31131;DHT22;20292;50.944;4.034;2022-09-02T12:11:02;28.60;95.00
31131;DHT22;20292;50.944;4.034;2022-09-02T12:18:38;28.00;95.30
31131;DHT22;20292;50.944;4.034;2022-09-02T12:21:09;27.80;94.30
31131;DHT22;20292;50.944;4.034;2022-09-02T12:24:08;27.60;95.00
31131;DHT22;20292;50.944;4.034;2022-09-02T12:29:30;27.50;95.30
31131;DHT22;20292;50.944;4.034;2022-09-02T12:31:56;27.70;95.20
31131;DHT22;20292;50.944;4.034;2022-09-02T12:36:56;28.20;94.00
31131;DHT22;20292;50.944;4.034;2022-09-02T12:42:25;28.00;94.30
31131;DHT22;20292;50.944;4.034;2022-09-02T12:47:34;28.00;93.20
31131;DHT22;20292;50.944;4.034;2022-09-02T12:52:48;28.50;91.90
31131;DHT22;20292;50.944;4.034;2022-09-02T12:55:24;28.70;91.80
31131;DHT22;20292;50.944;4.034;2022-09-02T12:58:03;28.80;90.90
31131;DHT22;20292;50.944;4.034;2022-09-02T13:05:54;27.80;92.20
31131;DHT22;20292;50.944;4.034;2022-09-02T13:11:56;27.70;92.70
31131;DHT22;20292;50.944;4.034;2022-09-02T13:14:51;27.40;92.30
31131;DHT22;20292;50.944;4.034;2022-09-02T13:26:07;27.90;91.70
31131;DHT22;20292;50.944;4.034;2022-09-02T13:31:25;28.30;91.30
31131;DHT22;20292;50.944;4.034;2022-09-02T13:34:17;28.80;89.80
31131;DHT22;20292;50.944;4.034;2022-09-02T13:36:45;29.20;88.30
31131;DHT22;20292;50.944;4.034;2022-09-02T13:39:24;29.40;87.10
31131;DHT22;20292;50.944;4.034;2022-09-02T13:41:50;29.20;87.10
31131;DHT22;20292;50.944;4.034;2022-09-02T13:44:26;29.00;87.00
31131;DHT22;20292;50.944;4.034;2022-09-02T13:49:26;28.80;86.90
31131;DHT22;20292;50.944;4.034;2022-09-02T13:51:53;28.60;87.10
31131;DHT22;20292;50.944;4.034;2022-09-02T13:54:31;28.40;86.70
31131;DHT22;20292;50.944;4.034;2022-09-02T13:57:00;28.50;87.50
31131;DHT22;20292;50.944;4.034;2022-09-02T13:59:46;28.70;85.60
31131;DHT22;20292;50.944;4.034;2022-09-02T14:02:33;28.70;85.60
31131;DHT22;20292;50.944;4.034;2022-09-02T14:07:38;28.60;86.30
31131;DHT22;20292;50.944;4.034;2022-09-02T14:10:08;28.70;85.70
31131;DHT22;20292;50.944;4.034;2022-09-02T14:12:36;28.70;84.50
31131;DHT22;20292;50.944;4.034;2022-09-02T14:15:05;28.20;86.50
31131;DHT22;20292;50.944;4.034;2022-09-02T14:17:31;28.30;87.10
31131;DHT22;20292;50.944;4.034;2022-09-02T14:20:18;28.40;85.80
31131;DHT22;20292;50.944;4.034;2022-09-02T14:22:55;28.40;85.20
31131;DHT22;20292;50.944;4.034;2022-09-02T14:25:22;28.50;84.00
31131;DHT22;20292;50.944;4.034;2022-09-02T14:27:54;28.50;84.80
31131;DHT22;20292;50.944;4.034;2022-09-02T14:36:03;28.10;83.60
31131;DHT22;20292;50.944;4.034;2022-09-02T14:38:36;28.10;82.80
31131;DHT22;20292;50.944;4.034;2022-09-02T14:41:25;28.10;83.10
31131;DHT22;20292;50.944;4.034;2022-09-02T14:43:53;28.30;83.40
31131;DHT22;20292;50.944;4.034;2022-09-02T14:46:33;28.20;82.60
31131;DHT22;20292;50.944;4.034;2022-09-02T14:49:05;28.40;82.90
31131;DHT22;20292;50.944;4.034;2022-09-02T14:51:49;28.60;82.50
31131;DHT22;20292;50.944;4.034;2022-09-02T14:59:45;29.60;78.90
31131;DHT22;20292;50.944;4.034;2022-09-02T15:04:54;29.60;77.00
31131;DHT22;20292;50.944;4.034;2022-09-02T15:07:20;29.60;75.40
31131;DHT22;20292;50.944;4.034;2022-09-02T15:09:46;29.60;75.00
31131;DHT22;20292;50.944;4.034;2022-09-02T15:12:21;29.50;75.50
31131;DHT22;20292;50.944;4.034;2022-09-02T15:14:51;29.60;75.60
31131;DHT22;20292;50.944;4.034;2022-09-02T15:17:17;29.60;74.90
31131;DHT22;20292;50.944;4.034;2022-09-02T15:19:43;29.60;75.80
31131;DHT22;20292;50.944;4.034;2022-09-02T15:22:08;29.70;74.40
31131;DHT22;20292;50.944;4.034;2022-09-02T15:24:34;29.70;75.10
31131;DHT22;20292;50.944;4.034;2022-09-02T15:27:00;29.80;74.00
31131;DHT22;20292;50.944;4.034;2022-09-02T15:29:25;29.40;73.50
31131;DHT22;20292;50.944;4.034;2022-09-02T15:31:52;29.30;74.40
31131;DHT22;20292;50.944;4.034;2022-09-02T15:34:20;29.00;74.20
31131;DHT22;20292;50.944;4.034;2022-09-02T15:36:45;28.90;75.30
31131;DHT22;20292;50.944;4.034;2022-09-02T15:39:11;29.00;75.90
31131;DHT22;20292;50.944;4.034;2022-09-02T15:41:37;29.10;74.50
31131;DHT22;20292;50.944;4.034;2022-09-02T15:44:04;29.30;74.00
31131;DHT22;20292;50.944;4.034;2022-09-02T15:46:32;29.50;73.20
31131;DHT22;20292;50.944;4.034;2022-09-02T15:49:09;29.60;72.80
31131;DHT22;20292;50.944;4.034;2022-09-02T15:51:35;29.70;71.90
31131;DHT22;20292;50.944;4.034;2022-09-02T15:54:05;29.80;71.40
31131;DHT22;20292;50.944;4.034;2022-09-02T15:56:35;29.90;71.00
31131;DHT22;20292;50.944;4.034;2022-09-02T15:59:23;29.80;70.80
31131;DHT22;20292;50.944;4.034;2022-09-02T16:01:50;29.60;71.50
31131;DHT22;20292;50.944;4.034;2022-09-02T16:04:16;29.50;72.20
31131;DHT22;20292;50.944;4.034;2022-09-02T16:06:44;29.70;71.60
31131;DHT22;20292;50.944;4.034;2022-09-02T16:09:12;29.80;71.10
31131;DHT22;20292;50.944;4.034;2022-09-02T16:11:39;29.90;71.30
31131;DHT22;20292;50.944;4.034;2022-09-02T16:14:05;30.00;71.50
31131;DHT22;20292;50.944;4.034;2022-09-02T16:16:32;30.10;70.60
31131;DHT22;20292;50.944;4.034;2022-09-02T16:18:58;30.10;70.20
31131;DHT22;20292;50.944;4.034;2022-09-02T16:21:24;30.20;70.60
31131;DHT22;20292;50.944;4.034;2022-09-02T16:23:50;30.10;70.00
31131;DHT22;20292;50.944;4.034;2022-09-02T16:26:28;29.80;70.70
31131;DHT22;20292;50.944;4.034;2022-09-02T16:28:59;29.70;70.50
31131;DHT22;20292;50.944;4.034;2022-09-02T16:31:26;29.50;71.00
31131;DHT22;20292;50.944;4.034;2022-09-02T16:36:24;29.40;71.30
31131;DHT22;20292;50.944;4.034;2022-09-02T16:38:50;29.20;82.60
31131;DHT22;20292;50.944;4.034;2022-09-02T16:43:47;28.70;89.20
31131;DHT22;20292;50.944;4.034;2022-09-02T16:46:13;28.50;90.60
31131;DHT22;20292;50.944;4.034;2022-09-02T16:48:38;28.30;91.30
31131;DHT22;20292;50.944;4.034;2022-09-02T16:51:04;28.10;92.00
31131;DHT22;20292;50.944;4.034;2022-09-02T16:53:31;28.00;92.60
31131;DHT22;20292;50.944;4.034;2022-09-02T16:55:57;27.80;93.20
31131;DHT22;20292;50.944;4.034;2022-09-02T16:58:23;27.70;93.80
31131;DHT22;20292;50.944;4.034;2022-09-02T17:00:49;27.50;94.30
31131;DHT22;20292;50.944;4.034;2022-09-02T17:03:14;27.40;95.00
31131;DHT22;20292;50.944;4.034;2022-09-02T17:05:40;27.30;95.50
31131;DHT22;20292;50.944;4.034;2022-09-02T17:08:06;27.20;96.10
31131;DHT22;20292;50.944;4.034;2022-09-02T17:10:33;27.00;96.90
31131;DHT22;20292;50.944;4.034;2022-09-02T17:12:59;26.90;97.70
31131;DHT22;20292;50.944;4.034;2022-09-02T17:15:26;26.80;98.30
31131;DHT22;20292;50.944;4.034;2022-09-02T17:17:53;26.70;99.20
31131;DHT22;20292;50.944;4.034;2022-09-02T17:20:19;26.70;99.60
31131;DHT22;20292;50.944;4.034;2022-09-02T17:22:44;26.70;99.90
31131;DHT22;20292;50.944;4.034;2022-09-02T17:25:10;26.60;99.90
31131;DHT22;20292;50.944;4.034;2022-09-02T17:27:37;26.60;99.90
31131;DHT22;20292;50.944;4.034;2022-09-02T17:30:06;26.50;99.90
31131;DHT22;20292;50.944;4.034;2022-09-02T17:32:33;26.50;99.90
31131;DHT22;20292;50.944;4.034;2022-09-02T17:35:00;26.30;99.90
31131;DHT22;20292;50.944;4.034;2022-09-02T17:37:26;26.40;99.90
31131;DHT22;20292;50.944;4.034;2022-09-02T17:39:52;26.30;99.90
31131;DHT22;20292;50.944;4.034;2022-09-02T17:42:18;26.40;99.90
31131;DHT22;20292;50.944;4.034;2022-09-02T17:44:46;26.30;99.90
31131;DHT22;20292;50.944;4.034;2022-09-02T17:47:18;26.30;99.90
31131;DHT22;20292;50.944;4.034;2022-09-02T17:49:44;26.30;99.90
31131;DHT22;20292;50.944;4.034;2022-09-02T17:52:15;26.30;99.90
31131;DHT22;20292;50.944;4.034;2022-09-02T17:54:41;26.20;99.90
31131;DHT22;20292;50.944;4.034;2022-09-02T18:07:50;26.20;99.90
31131;DHT22;20292;50.944;4.034;2022-09-02T18:10:18;26.10;99.90
31131;DHT22;20292;50.944;4.034;2022-09-02T18:12:44;26.00;99.90